Terminal Aerodrome Forecast
Issued by NWS Atlanta, GA

Current Version | Previous Version | Text Only | Print | Product List | Glossary On
Versions: 1 2 3 4 5 6 7 8 9 10 11 12 13 14 15 16 17 18 19 20 21 22 23 24 25 26 27 28 29 30 31 32 33 34 35 36 37
123
FTUS42 KFFC 141735
TAFATL
TAF
KATL 141735Z 1418/1524 14010KT P6SM SCT080 BKN250
     FM142300 12008KT P6SM BKN060
     FM150600 11008KT P6SM BKN030
     FM150900 11008KT P6SM OVC015
     FM151100 12008KT P6SM VCSH OVC012 PROB30 1511/1517 6SM -DZ BR
      OVC007
     FM151700 13009KT 5SM BR VCSH OVC006
     FM152100 14010KT 4SM -RA BR OVC004=

USA.gov is the U.S. government's official web portal to all federal, state and local government web resources and services.